Time;durP1;ratioP1;P1;durP2;ratioP2;P2;SDS_P1;SDS_P2;PMS_P1;PMS_P2;Temp;Humidity;BMP_temperature;BMP_pressure;BME280_temperature;BME280_humidity;BME280_pressure;Samples;Min_cycle;Max_cycle;Signal;HPM_P1;HPM_P2
2023/08/02 02:04:12;;;;;;;1.48;0.85;;;;;;;;;;10338714;28;20061;-60
2023/08/02 02:09:12;;;;;;;0.80;0.80;;;;;;;;;;10368411;28;20045;-60
2023/08/02 02:14:14;;;;;;;0.98;0.98;;;;;;;;;;10366432;28;20055;-60
2023/08/02 02:19:15;;;;;;;0.82;0.80;;;;;;;;;;10369091;28;20494;-60
2023/08/02 02:24:15;;;;;;;2.17;1.08;;;;;;;;;;10367980;28;20035;-60
2023/08/02 02:29:16;;;;;;;1.50;0.88;;;;;;;;;;10367814;28;20979;-61
2023/08/02 02:34:16;;;;;;;4.72;0.95;;;;;;;;;;10366746;28;20029;-59
2023/08/02 02:39:17;;;;;;;2.80;1.20;;;;;;;;;;10366959;28;20034;-58
2023/08/02 02:44:17;;;;;;;1.10;0.90;;;;;;;;;;10366132;28;20025;-58
2023/08/02 02:49:18;;;;;;;4.53;0.90;;;;;;;;;;10365198;28;20026;-58
2023/08/02 02:54:19;;;;;;;1.80;1.00;;;;;;;;;;10364966;28;20018;-58
2023/08/02 02:59:19;;;;;;;1.08;0.85;;;;;;;;;;10365716;28;20033;-59
2023/08/02 03:04:20;;;;;;;1.95;0.95;;;;;;;;;;10364827;28;20041;-60
2023/08/02 03:09:20;;;;;;;1.70;0.98;;;;;;;;;;10364865;28;20061;-60
2023/08/02 03:14:22;;;;;;;5.03;1.10;;;;;;;;;;10366016;28;20018;-59
2023/08/02 03:19:22;;;;;;;2.08;1.10;;;;;;;;;;10365773;28;20029;-60
2023/08/02 03:24:23;;;;;;;4.40;0.80;;;;;;;;;;10364606;28;20048;-60
2023/08/02 03:29:24;;;;;;;1.58;1.08;;;;;;;;;;10363154;28;20032;-59
2023/08/02 03:34:25;;;;;;;1.95;0.82;;;;;;;;;;10363674;28;20117;-59
2023/08/02 03:39:27;;;;;;;1.50;0.95;;;;;;;;;;10364994;28;20040;-58
2023/08/02 03:44:27;;;;;;;2.65;1.30;;;;;;;;;;10363493;28;20108;-59
2023/08/02 03:49:28;;;;;;;0.88;0.88;;;;;;;;;;10364557;28;20407;-59
2023/08/02 03:54:28;;;;;;;1.00;0.80;;;;;;;;;;10368228;28;20030;-59
2023/08/02 03:59:29;;;;;;;2.03;0.80;;;;;;;;;;10372968;28;20038;-59
2023/08/02 04:04:30;;;;;;;1.08;0.75;;;;;;;;;;10372133;28;20046;-59
2023/08/02 04:09:30;;;;;;;0.70;0.70;;;;;;;;;;10372356;28;20026;-58
2023/08/02 04:14:31;;;;;;;1.27;0.90;;;;;;;;;;10373340;28;20080;-59
2023/08/02 04:19:31;;;;;;;2.78;0.90;;;;;;;;;;10373543;28;20030;-58
2023/08/02 04:24:33;;;;;;;1.85;0.98;;;;;;;;;;10372905;28;20037;-58
2023/08/02 04:29:34;;;;;;;0.80;0.80;;;;;;;;;;10373565;28;20032;-58
2023/08/02 04:34:34;;;;;;;1.85;0.90;;;;;;;;;;10373553;28;20355;-58
2023/08/02 04:39:35;;;;;;;1.83;1.00;;;;;;;;;;10372597;28;20382;-61
2023/08/02 04:44:36;;;;;;;2.67;0.82;;;;;;;;;;10370580;28;20033;-59
2023/08/02 04:49:36;;;;;;;1.92;0.95;;;;;;;;;;10368845;28;20064;-62
2023/08/02 04:54:37;;;;;;;2.42;1.10;;;;;;;;;;10370838;28;20026;-61
2023/08/02 04:59:37;;;;;;;1.60;0.80;;;;;;;;;;10370498;28;20427;-60
2023/08/02 05:04:38;;;;;;;1.13;0.90;;;;;;;;;;10368553;28;20034;-59
2023/08/02 05:09:41;;;;;;;1.10;0.85;;;;;;;;;;10369650;28;20095;-59
2023/08/02 05:14:42;;;;;;;3.50;1.10;;;;;;;;;;10364334;28;20025;-59
2023/08/02 05:19:42;;;;;;;1.73;0.80;;;;;;;;;;10369952;28;20034;-58
2023/08/02 05:24:43;;;;;;;1.95;1.02;;;;;;;;;;10369764;28;20359;-61
2023/08/02 05:29:44;;;;;;;6.35;1.15;;;;;;;;;;10368586;28;20421;-60
2023/08/02 05:34:44;;;;;;;3.33;1.00;;;;;;;;;;10389622;23;20058;-56
2023/08/02 05:39:45;;;;;;;3.38;1.20;;;;;;;;;;10366696;28;20030;-57
2023/08/02 05:44:45;;;;;;;3.83;1.10;;;;;;;;;;10365538;28;20034;-55
2023/08/02 05:49:48;;;;;;;2.97;1.15;;;;;;;;;;10365368;28;20029;-59
2023/08/02 05:54:48;;;;;;;3.45;1.05;;;;;;;;;;10367433;28;20585;-59
2023/08/02 05:59:49;;;;;;;3.55;1.20;;;;;;;;;;10370498;28;20030;-58
2023/08/02 06:04:50;;;;;;;1.80;1.10;;;;;;;;;;10369193;28;20029;-58
2023/08/02 06:09:50;;;;;;;3.05;0.80;;;;;;;;;;10368834;28;20030;-57
2023/08/02 06:14:51;;;;;;;9.55;1.30;;;;;;;;;;10367244;28;20554;-57
2023/08/02 06:19:52;;;;;;;1.40;1.20;;;;;;;;;;10367349;28;20044;-57
2023/08/02 06:24:52;;;;;;;2.75;1.00;;;;;;;;;;10369154;28;20117;-57
2023/08/02 06:29:53;;;;;;;1.90;1.33;;;;;;;;;;10369917;28;20088;-57
2023/08/02 06:34:53;;;;;;;4.65;1.67;;;;;;;;;;10369636;28;20050;-57
2023/08/02 06:39:54;;;;;;;2.35;1.42;;;;;;;;;;10368361;28;20037;-56
2023/08/02 06:44:55;;;;;;;2.22;1.30;;;;;;;;;;10369495;28;20040;-56
2023/08/02 06:49:55;;;;;;;7.47;1.55;;;;;;;;;;10369404;28;20071;-56
2023/08/02 06:54:56;;;;;;;3.47;1.25;;;;;;;;;;10369657;28;20033;-56
2023/08/02 06:59:57;;;;;;;4.40;1.30;;;;;;;;;;10368951;28;20034;-56
2023/08/02 07:04:57;;;;;;;6.93;1.20;;;;;;;;;;10368915;28;20026;-56
2023/08/02 07:09:58;;;;;;;3.78;1.35;;;;;;;;;;10368593;28;20095;-56
2023/08/02 07:14:58;;;;;;;3.13;1.23;;;;;;;;;;10368486;28;20034;-56
2023/08/02 07:19:59;;;;;;;1.77;1.20;;;;;;;;;;10368783;28;20076;-56
2023/08/02 07:25:00;;;;;;;5.00;1.30;;;;;;;;;;10368427;28;20049;-56
2023/08/02 07:30:02;;;;;;;2.03;1.27;;;;;;;;;;10367497;28;20411;-56
2023/08/02 07:35:04;;;;;;;4.03;1.15;;;;;;;;;;10367928;28;20100;-57
2023/08/02 07:40:05;;;;;;;3.13;1.17;;;;;;;;;;10368130;28;20105;-56
2023/08/02 07:45:09;;;;;;;4.30;1.33;;;;;;;;;;10367892;28;20026;-56
2023/08/02 07:50:09;;;;;;;3.72;1.30;;;;;;;;;;10367389;28;20453;-56
2023/08/02 07:55:10;;;;;;;3.05;1.10;;;;;;;;;;10367278;28;20034;-56
2023/08/02 08:00:11;;;;;;;3.10;1.10;;;;;;;;;;10367852;28;20038;-56
2023/08/02 08:05:12;;;;;;;3.38;1.33;;;;;;;;;;10367140;28;20379;-56
2023/08/02 08:10:13;;;;;;;1.15;0.95;;;;;;;;;;10367569;28;20034;-56
2023/08/02 08:15:13;;;;;;;3.83;1.30;;;;;;;;;;10367095;28;20034;-57
2023/08/02 08:20:14;;;;;;;2.67;1.48;;;;;;;;;;10367349;28;20084;-56
2023/08/02 08:25:15;;;;;;;2.25;1.02;;;;;;;;;;10366902;28;20424;-57
2023/08/02 08:30:15;;;;;;;2.60;1.50;;;;;;;;;;10367240;28;20049;-56
2023/08/02 08:35:16;;;;;;;3.72;0.98;;;;;;;;;;10366828;28;20405;-56
2023/08/02 08:40:17;;;;;;;1.55;1.40;;;;;;;;;;10368441;28;20273;-56
2023/08/02 08:45:20;;;;;;;2.90;1.30;;;;;;;;;;10374566;28;20026;-57
2023/08/02 08:50:22;;;;;;;2.92;1.30;;;;;;;;;;10373983;28;20029;-56
2023/08/02 08:55:27;;;;;;;2.03;1.10;;;;;;;;;;10373525;28;20446;-56
2023/08/02 09:00:27;;;;;;;4.07;1.33;;;;;;;;;;10372298;28;20026;-56
2023/08/02 09:05:30;;;;;;;2.80;1.27;;;;;;;;;;10373177;28;20025;-57
2023/08/02 09:10:33;;;;;;;2.55;1.30;;;;;;;;;;10371937;28;20022;-56
2023/08/02 09:15:33;;;;;;;2.50;1.45;;;;;;;;;;10372764;28;20530;-56
2023/08/02 09:20:34;;;;;;;4.00;1.40;;;;;;;;;;10372750;28;20026;-56
2023/08/02 09:25:34;;;;;;;1.73;1.30;;;;;;;;;;10372300;28;20033;-56
2023/08/02 09:30:35;;;;;;;3.35;1.05;;;;;;;;;;10372416;28;20103;-56
2023/08/02 09:35:45;;;;;;;2.20;1.25;;;;;;;;;;10372327;28;20108;-56
2023/08/02 09:40:47;;;;;;;1.50;1.13;;;;;;;;;;10372387;28;20048;-56
2023/08/02 09:45:48;;;;;;;1.73;1.15;;;;;;;;;;10372194;28;20602;-56
2023/08/02 09:50:55;;;;;;;3.03;1.30;;;;;;;;;;10371253;28;20049;-56
2023/08/02 09:55:58;;;;;;;1.30;1.10;;;;;;;;;;10371247;28;20474;-57
2023/08/02 10:01:00;;;;;;;3.13;1.33;;;;;;;;;;10369898;28;20474;-56
2023/08/02 10:06:06;;;;;;;1.30;1.13;;;;;;;;;;10370048;28;20123;-56
2023/08/02 10:11:08;;;;;;;1.20;1.10;;;;;;;;;;10371145;28;20105;-56
2023/08/02 10:16:10;;;;;;;3.13;1.27;;;;;;;;;;10370998;28;20034;-57
2023/08/02 10:21:13;;;;;;;2.50;1.40;;;;;;;;;;10370841;28;20026;-56
2023/08/02 10:26:15;;;;;;;2.42;1.30;;;;;;;;;;10370131;28;20030;-56
2023/08/02 10:31:17;;;;;;;2.10;1.35;;;;;;;;;;10369966;28;20033;-56
2023/08/02 10:36:17;;;;;;;1.30;1.20;;;;;;;;;;10369428;28;20057;-56
2023/08/02 10:41:26;;;;;;;1.20;1.10;;;;;;;;;;10370127;28;20030;-56
2023/08/02 10:46:29;;;;;;;1.58;1.13;;;;;;;;;;10370154;28;20120;-56
2023/08/02 10:51:32;;;;;;;3.65;1.23;;;;;;;;;;10369109;28;20512;-56
2023/08/02 10:56:33;;;;;;;1.10;1.00;;;;;;;;;;10369436;28;20032;-56
2023/08/02 11:01:33;;;;;;;1.90;1.38;;;;;;;;;;10368885;28;20026;-56
2023/08/02 11:06:34;;;;;;;1.60;1.40;;;;;;;;;;10368413;28;20049;-57
2023/08/02 11:11:36;;;;;;;2.63;1.38;;;;;;;;;;10369115;28;20079;-56
2023/08/02 11:16:41;;;;;;;4.40;1.67;;;;;;;;;;10368892;28;20026;-56
2023/08/02 11:21:52;;;;;;;1.77;1.20;;;;;;;;;;10368239;28;20178;-56
2023/08/02 11:26:57;;;;;;;1.50;1.25;;;;;;;;;;10368014;28;20400;-56
2023/08/02 11:32:04;;;;;;;5.15;1.40;;;;;;;;;;10367925;28;20508;-56
2023/08/02 11:37:05;;;;;;;2.50;1.20;;;;;;;;;;10367830;28;20050;-56
2023/08/02 11:42:05;;;;;;;3.05;1.40;;;;;;;;;;10367686;28;20030;-56
2023/08/02 11:47:06;;;;;;;2.28;1.50;;;;;;;;;;10367873;28;20029;-56
2023/08/02 11:52:07;;;;;;;2.75;1.35;;;;;;;;;;10367306;28;20042;-56
2023/08/02 11:57:07;;;;;;;2.53;1.25;;;;;;;;;;10367275;28;20033;-56
2023/08/02 12:02:31;;;;;;;2.45;1.70;;;;;;;;;;10366182;28;20037;-56
2023/08/02 12:07:34;;;;;;;3.83;1.65;;;;;;;;;;10367549;28;20030;-56
2023/08/02 12:12:37;;;;;;;2.28;1.58;;;;;;;;;;10367018;28;20026;-56
2023/08/02 12:17:38;;;;;;;3.65;1.85;;;;;;;;;;10373880;28;20105;-56
2023/08/02 12:22:49;;;;;;;2.95;1.52;;;;;;;;;;10375953;28;20037;-56
2023/08/02 12:28:08;;;;;;;1.92;1.73;;;;;;;;;;10374679;28;20155;-56
2023/08/02 12:33:09;;;;;;;2.97;1.63;;;;;;;;;;10375087;28;20114;-56
2023/08/02 12:38:09;;;;;;;1.65;1.45;;;;;;;;;;10374136;28;20387;-56
2023/08/02 12:43:10;;;;;;;3.10;1.88;;;;;;;;;;10373983;28;20029;-56
2023/08/02 12:48:10;;;;;;;3.53;1.65;;;;;;;;;;10374238;28;20609;-57
2023/08/02 12:53:12;;;;;;;2.67;1.65;;;;;;;;;;10374147;28;20033;-56
2023/08/02 12:58:12;;;;;;;2.42;1.40;;;;;;;;;;10373823;28;20029;-57
2023/08/02 13:03:13;;;;;;;1.70;1.60;;;;;;;;;;10374011;28;20029;-56
2023/08/02 13:08:14;;;;;;;1.88;1.40;;;;;;;;;;10373598;28;20441;-56
2023/08/02 13:13:14;;;;;;;2.58;1.70;;;;;;;;;;10373444;28;20052;-57
2023/08/02 13:18:15;;;;;;;2.17;1.55;;;;;;;;;;10372873;28;20377;-56
2023/08/02 13:23:15;;;;;;;1.70;1.45;;;;;;;;;;10372721;28;20030;-56
2023/08/02 13:28:16;;;;;;;1.60;1.40;;;;;;;;;;10371791;28;20080;-56
2023/08/02 13:33:16;;;;;;;2.38;1.45;;;;;;;;;;10372813;28;20101;-56
2023/08/02 13:38:17;;;;;;;1.58;1.48;;;;;;;;;;10371926;28;20108;-56
2023/08/02 13:43:18;;;;;;;2.35;1.95;;;;;;;;;;10371739;28;20370;-56
2023/08/02 13:48:18;;;;;;;2.22;1.80;;;;;;;;;;10371589;28;20026;-56
2023/08/02 13:53:19;;;;;;;1.75;1.65;;;;;;;;;;10372145;28;20030;-56
2023/08/02 13:58:19;;;;;;;4.32;1.92;;;;;;;;;;10371147;28;20045;-56
2023/08/02 14:03:20;;;;;;;1.90;1.65;;;;;;;;;;10371245;28;20022;-56
2023/08/02 14:08:20;;;;;;;2.85;1.70;;;;;;;;;;10371994;28;20021;-56
2023/08/02 14:13:21;;;;;;;2.38;1.50;;;;;;;;;;10370846;28;20205;-56
2023/08/02 14:18:22;;;;;;;3.28;1.85;;;;;;;;;;10370721;28;20084;-56
2023/08/02 14:23:22;;;;;;;1.40;1.30;;;;;;;;;;10370456;28;20030;-56
2023/08/02 14:28:23;;;;;;;3.83;2.00;;;;;;;;;;10370416;28;20026;-56
2023/08/02 14:33:24;;;;;;;2.67;1.70;;;;;;;;;;10370713;28;20041;-56
2023/08/02 14:38:24;;;;;;;1.77;1.52;;;;;;;;;;10369503;28;20490;-56
2023/08/02 14:43:25;;;;;;;2.53;1.70;;;;;;;;;;10370192;28;20026;-56
2023/08/02 14:48:26;;;;;;;2.88;1.67;;;;;;;;;;10369602;28;20466;-56
2023/08/02 14:53:27;;;;;;;1.67;1.58;;;;;;;;;;10369707;28;20053;-56
2023/08/02 14:58:28;;;;;;;3.10;1.90;;;;;;;;;;10369695;28;20050;-56
2023/08/02 15:03:29;;;;;;;2.83;1.77;;;;;;;;;;10369124;28;20034;-57
2023/08/02 15:08:29;;;;;;;2.20;1.95;;;;;;;;;;10368846;28;20022;-56
2023/08/02 15:13:30;;;;;;;2.53;1.95;;;;;;;;;;10368914;28;20066;-56
2023/08/02 15:18:30;;;;;;;2.83;1.90;;;;;;;;;;10369116;28;20030;-56
2023/08/02 15:23:31;;;;;;;2.00;1.80;;;;;;;;;;10368981;28;20216;-56
2023/08/02 15:28:32;;;;;;;2.22;1.73;;;;;;;;;;10368745;28;20036;-56
2023/08/02 15:33:33;;;;;;;1.92;1.67;;;;;;;;;;10368161;28;20033;-56
2023/08/02 15:38:34;;;;;;;3.50;1.70;;;;;;;;;;10368086;28;20204;-58
2023/08/02 15:43:34;;;;;;;1.50;1.40;;;;;;;;;;10367994;28;20146;-58
2023/08/02 15:48:36;;;;;;;2.55;1.95;;;;;;;;;;10368883;28;20025;-57
2023/08/02 15:53:37;;;;;;;3.00;1.80;;;;;;;;;;10381602;28;20030;-57
2023/08/02 15:58:40;;;;;;;2.00;1.80;;;;;;;;;;10381889;28;20038;-58
2023/08/02 16:03:41;;;;;;;1.88;1.70;;;;;;;;;;10381276;28;20053;-57
2023/08/02 16:08:43;;;;;;;2.63;1.90;;;;;;;;;;10380874;28;20097;-58
2023/08/02 16:13:44;;;;;;;3.45;2.00;;;;;;;;;;10380557;28;20030;-58
2023/08/02 16:18:44;;;;;;;2.40;1.88;;;;;;;;;;10380304;28;20030;-59
2023/08/02 16:23:45;;;;;;;3.38;1.90;;;;;;;;;;10380949;28;20084;-58
2023/08/02 16:28:46;;;;;;;2.88;2.25;;;;;;;;;;10379989;28;20405;-57
2023/08/02 16:33:46;;;;;;;2.15;1.73;;;;;;;;;;10380870;28;20574;-58
2023/08/02 16:38:47;;;;;;;25.15;3.28;;;;;;;;;;10380082;28;20364;-56
2023/08/02 16:43:47;;;;;;;19.17;3.55;;;;;;;;;;10379399;28;20036;-57
2023/08/02 16:48:48;;;;;;;6.93;3.35;;;;;;;;;;10379468;28;20033;-57
2023/08/02 16:53:49;;;;;;;8.40;3.03;;;;;;;;;;10378702;28;20036;-56
2023/08/02 16:58:49;;;;;;;9.52;3.70;;;;;;;;;;10379937;28;20026;-54
2023/08/02 17:03:51;;;;;;;8.88;3.67;;;;;;;;;;10374607;28;20022;-57
2023/08/02 17:08:52;;;;;;;7.10;3.65;;;;;;;;;;10373991;28;20042;-57
2023/08/02 17:13:52;;;;;;;9.57;4.22;;;;;;;;;;10373190;28;20026;-56
2023/08/02 17:18:53;;;;;;;9.60;3.60;;;;;;;;;;10373697;28;20041;-56
2023/08/02 17:23:54;;;;;;;8.20;3.83;;;;;;;;;;10372715;28;20033;-56
2023/08/02 17:28:55;;;;;;;10.68;4.13;;;;;;;;;;10373112;28;20034;-55
2023/08/02 17:33:55;;;;;;;9.95;3.55;;;;;;;;;;10371490;28;20094;-58
2023/08/02 17:38:56;;;;;;;7.13;3.92;;;;;;;;;;10370753;28;20041;-57
2023/08/02 17:43:56;;;;;;;6.65;3.55;;;;;;;;;;10369886;28;20026;-57
2023/08/02 17:48:57;;;;;;;7.53;3.78;;;;;;;;;;10371480;28;20026;-58
2023/08/02 17:53:58;;;;;;;11.55;3.95;;;;;;;;;;10371567;28;20025;-58
2023/08/02 17:58:59;;;;;;;10.57;4.18;;;;;;;;;;10371922;28;20032;-57
2023/08/02 18:04:00;;;;;;;7.10;3.40;;;;;;;;;;10371798;28;20037;-57
2023/08/02 18:09:01;;;;;;;8.73;3.65;;;;;;;;;;10371058;28;20112;-57
2023/08/02 18:14:02;;;;;;;6.00;3.70;;;;;;;;;;10370733;28;20096;-56
2023/08/02 18:19:03;;;;;;;10.77;3.90;;;;;;;;;;10370783;28;20060;-57
2023/08/02 18:24:04;;;;;;;9.50;3.42;;;;;;;;;;10370470;28;20025;-57
2023/08/02 18:29:04;;;;;;;9.43;4.00;;;;;;;;;;10370094;28;20501;-59
2023/08/02 18:34:05;;;;;;;16.85;3.85;;;;;;;;;;10370951;28;20026;-58
2023/08/02 18:39:07;;;;;;;8.80;3.90;;;;;;;;;;10369221;28;20386;-57
2023/08/02 18:44:08;;;;;;;8.32;3.70;;;;;;;;;;10369744;28;20045;-57
2023/08/02 18:49:09;;;;;;;9.55;3.92;;;;;;;;;;10369591;28;20390;-57
2023/08/02 18:54:09;;;;;;;9.52;4.45;;;;;;;;;;10369769;28;20033;-57
2023/08/02 18:59:10;;;;;;;9.88;4.70;;;;;;;;;;10368661;28;20022;-57
2023/08/02 19:04:10;;;;;;;17.00;4.30;;;;;;;;;;10368356;28;20138;-57
2023/08/02 19:09:11;;;;;;;12.82;3.67;;;;;;;;;;10368178;28;20038;-57
2023/08/02 19:14:12;;;;;;;9.80;4.05;;;;;;;;;;10368220;28;20030;-57
2023/08/02 19:19:28;;;;;;;11.27;4.45;;;;;;;;;;10369108;28;20550;-57
2023/08/02 19:24:32;;;;;;;29.55;5.93;;;;;;;;;;10367285;28;20025;-57
2023/08/02 19:29:33;;;;;;;17.45;4.85;;;;;;;;;;10367689;28;20556;-56
2023/08/02 19:34:37;;;;;;;14.68;4.50;;;;;;;;;;10368584;28;20025;-57
2023/08/02 19:39:37;;;;;;;13.63;3.80;;;;;;;;;;10368723;28;20057;-57
2023/08/02 19:44:38;;;;;;;18.63;4.00;;;;;;;;;;10366841;28;20025;-57
2023/08/02 19:49:39;;;;;;;10.65;4.05;;;;;;;;;;10367908;28;20088;-57
2023/08/02 19:54:40;;;;;;;10.82;3.83;;;;;;;;;;10365799;28;20025;-57
2023/08/02 19:59:41;;;;;;;8.88;3.55;;;;;;;;;;10368109;28;20026;-56
2023/08/02 20:04:41;;;;;;;6.03;3.47;;;;;;;;;;10367482;28;20029;-57
2023/08/02 20:09:47;;;;;;;11.13;3.80;;;;;;;;;;10367641;28;20026;-57
2023/08/02 20:14:49;;;;;;;4.68;3.38;;;;;;;;;;10365462;28;20034;-57
2023/08/02 20:19:50;;;;;;;5.45;3.33;;;;;;;;;;10367317;28;20105;-57
2023/08/02 20:24:50;;;;;;;15.30;3.63;;;;;;;;;;10367317;28;20030;-57
2023/08/02 20:29:51;;;;;;;11.73;4.38;;;;;;;;;;10367410;28;20026;-57
2023/08/02 20:34:52;;;;;;;10.45;3.47;;;;;;;;;;10366744;28;20049;-57
2023/08/02 20:39:54;;;;;;;8.57;3.95;;;;;;;;;;10373673;28;20401;-57
2023/08/02 20:44:55;;;;;;;8.95;3.58;;;;;;;;;;10372624;28;20374;-56
2023/08/02 20:49:56;;;;;;;6.97;3.60;;;;;;;;;;10374148;28;20030;-56
2023/08/02 20:54:56;;;;;;;6.90;3.70;;;;;;;;;;10372803;28;20029;-56
2023/08/02 20:59:57;;;;;;;10.60;3.88;;;;;;;;;;10374270;28;20030;-57
2023/08/02 21:04:58;;;;;;;5.43;3.65;;;;;;;;;;10372850;28;20474;-57
2023/08/02 21:09:58;;;;;;;7.38;3.47;;;;;;;;;;10373757;28;20038;-57
2023/08/02 21:14:59;;;;;;;7.15;3.60;;;;;;;;;;10373232;28;20026;-58
2023/08/02 21:20:24;;;;;;;7.57;3.70;;;;;;;;;;10373006;28;20026;-57
2023/08/02 21:25:25;;;;;;;6.43;3.40;;;;;;;;;;10371956;28;20632;-57
2023/08/02 21:30:26;;;;;;;5.07;3.10;;;;;;;;;;10373261;28;20257;-57
2023/08/02 21:35:27;;;;;;;7.00;3.40;;;;;;;;;;10372605;28;20046;-57
2023/08/02 21:40:28;;;;;;;7.65;3.45;;;;;;;;;;10372076;28;20088;-57
2023/08/02 21:45:31;;;;;;;7.18;2.97;;;;;;;;;;10370542;28;20048;-58
2023/08/02 21:50:31;;;;;;;4.70;2.97;;;;;;;;;;10371324;28;20033;-58
2023/08/02 21:55:37;;;;;;;7.82;3.33;;;;;;;;;;10371631;28;20363;-58
2023/08/02 22:00:38;;;;;;;5.40;2.58;;;;;;;;;;10370961;28;20030;-58
2023/08/02 22:05:38;;;;;;;9.77;3.25;;;;;;;;;;10369829;28;20493;-58
2023/08/02 22:10:41;;;;;;;5.50;2.60;;;;;;;;;;10371124;28;20030;-58
2023/08/02 22:15:43;;;;;;;6.13;2.45;;;;;;;;;;10370481;28;20030;-58
2023/08/02 22:20:44;;;;;;;6.50;2.80;;;;;;;;;;10370635;28;20473;-57
2023/08/02 22:25:44;;;;;;;8.18;2.53;;;;;;;;;;10370716;28;20094;-56
2023/08/02 22:30:45;;;;;;;14.38;3.20;;;;;;;;;;10370172;28;20026;-57
2023/08/02 22:35:46;;;;;;;6.00;2.80;;;;;;;;;;10370099;28;20046;-57
2023/08/02 22:40:46;;;;;;;4.28;2.60;;;;;;;;;;10369940;28;20034;-57
2023/08/02 22:45:47;;;;;;;3.53;2.28;;;;;;;;;;10368483;28;20490;-58
2023/08/02 22:50:47;;;;;;;2.75;2.50;;;;;;;;;;10369998;28;20547;-58
2023/08/02 22:55:48;;;;;;;4.65;3.13;;;;;;;;;;10369758;28;20320;-57
2023/08/02 23:00:49;;;;;;;3.03;2.45;;;;;;;;;;10368875;28;20497;-58
2023/08/02 23:05:49;;;;;;;5.55;2.58;;;;;;;;;;10368512;28;20470;-58
2023/08/02 23:10:50;;;;;;;3.45;2.58;;;;;;;;;;10368768;28;20034;-57
2023/08/02 23:15:50;;;;;;;3.20;2.25;;;;;;;;;;10368951;28;20030;-57
2023/08/02 23:20:52;;;;;;;3.47;2.17;;;;;;;;;;10369048;28;20032;-57
2023/08/02 23:26:10;;;;;;;3.33;2.10;;;;;;;;;;10368957;28;20032;-57
2023/08/02 23:31:14;;;;;;;;;;;;;;;;;;10368788;28;20030;-57
2023/08/02 23:36:15;;;;;;;3.22;2.30;;;;;;;;;;10368273;28;20308;-57
2023/08/02 23:41:15;;;;;;;3.78;2.28;;;;;;;;;;10367978;28;20030;-57
2023/08/02 23:46:16;;;;;;;3.35;2.38;;;;;;;;;;10368163;28;20018;-57
2023/08/02 23:51:17;;;;;;;2.63;1.95;;;;;;;;;;10367765;28;20269;-58
2023/08/02 23:56:17;;;;;;;4.78;2.00;;;;;;;;;;10368229;28;20029;-58
